Time;durP1;ratioP1;P1;durP2;ratioP2;P2;SDS_P1;SDS_P2;PMS_P1;PMS_P2;Temp;Humidity;BMP_temperature;BMP_pressure;BME280_temperature;BME280_humidity;BME280_pressure;Samples;Min_cycle;Max_cycle;Signal;HPM_P1;HPM_P2
2023/07/02 00:01:10;;;;;;;5.43;3.80;;;17.50;86.50;;;;;;4962812;29;20283;-78
2023/07/02 00:03:38;;;;;;;10.40;4.07;;;17.50;86.60;;;;;;4950727;29;20219;-76
2023/07/02 00:06:04;;;;;;;7.10;4.20;;;17.50;86.60;;;;;;4964000;29;20223;-77
2023/07/02 00:08:29;;;;;;;9.13;3.87;;;17.50;86.80;;;;;;4955127;29;20435;-77
2023/07/02 00:10:55;;;;;;;6.30;3.80;;;17.50;86.50;;;;;;4947427;28;20290;-76
2023/07/02 00:13:20;;;;;;;6.63;4.40;;;17.50;86.30;;;;;;4950665;29;20192;-79
2023/07/02 00:15:46;;;;;;;5.63;3.50;;;17.50;85.90;;;;;;4953631;29;20192;-78
2023/07/02 00:18:16;;;;;;;6.13;3.57;;;17.50;86.00;;;;;;4953740;29;20915;-78
2023/07/02 00:20:43;;;;;;;6.27;3.80;;;17.50;86.00;;;;;;4948626;29;20574;-77
2023/07/02 00:23:09;;;;;;;6.87;4.07;;;17.50;85.50;;;;;;4939387;29;20432;-76
2023/07/02 00:25:36;;;;;;;5.50;4.17;;;17.50;85.90;;;;;;4953434;29;20474;-78
2023/07/02 00:28:02;;;;;;;6.13;3.90;;;17.40;85.60;;;;;;4953374;29;20443;-79
2023/07/02 00:30:28;;;;;;;5.10;3.70;;;17.40;85.30;;;;;;4949990;29;21056;-78
2023/07/02 00:32:54;;;;;;;6.80;3.90;;;17.40;85.60;;;;;;4942057;29;20523;-77
2023/07/02 00:35:20;;;;;;;5.73;3.90;;;17.40;85.60;;;;;;4957436;29;20533;-77
2023/07/02 00:37:45;;;;;;;8.10;4.53;;;17.50;85.30;;;;;;4953949;29;20454;-78
2023/07/02 00:40:11;;;;;;;9.70;4.03;;;17.50;85.60;;;;;;4947714;29;20274;-78
2023/07/02 00:42:37;;;;;;;8.43;3.70;;;17.50;85.00;;;;;;4944072;29;20191;-80
2023/07/02 00:45:03;;;;;;;5.30;3.80;;;17.50;85.30;;;;;;4952836;29;20479;-78
2023/07/02 00:47:33;;;;;;;6.90;4.20;;;17.50;85.30;;;;;;4954122;28;20292;-77
2023/07/02 00:50:00;;;;;;;5.73;3.53;;;17.60;84.70;;;;;;4949617;28;20484;-77
2023/07/02 00:52:25;;;;;;;6.80;3.17;;;17.60;85.00;;;;;;4947121;29;20451;-79
2023/07/02 00:54:51;;;;;;;6.90;3.90;;;17.60;84.70;;;;;;4954075;29;20428;-77
2023/07/02 00:57:17;;;;;;;5.13;3.50;;;17.60;84.00;;;;;;4960729;29;20438;-76
2023/07/02 00:59:43;;;;;;;5.27;3.07;;;17.60;84.00;;;;;;4952915;28;20214;-76
2023/07/02 01:02:09;;;;;;;6.50;3.27;;;17.60;84.10;;;;;;4950750;29;20189;-77
2023/07/02 01:04:34;;;;;;;6.00;3.80;;;17.60;84.10;;;;;;4950431;29;20218;-78
2023/07/02 01:07:00;;;;;;;4.90;3.47;;;17.60;84.00;;;;;;4956534;29;20218;-77
2023/07/02 01:09:26;;;;;;;7.30;4.10;;;17.50;83.70;;;;;;4957261;29;21174;-79
2023/07/02 01:12:00;;;;;;;4.40;3.80;;;17.50;83.80;;;;;;4957217;29;20215;-78
2023/07/02 01:14:36;;;;;;;6.30;3.90;;;17.50;83.40;;;;;;4957846;29;20451;-78
2023/07/02 01:17:05;;;;;;;5.43;3.57;;;17.50;83.40;;;;;;4954463;29;21013;-76
2023/07/02 01:19:51;;;;;;;5.67;3.70;;;17.50;83.10;;;;;;4960552;29;20526;-78
2023/07/02 01:22:24;;;;;;;9.63;4.27;;;17.50;83.30;;;;;;4957338;29;20432;-78
2023/07/02 01:24:51;;;;;;;7.57;4.20;;;17.60;83.10;;;;;;4958933;29;20551;-78
2023/07/02 01:27:17;;;;;;;5.30;3.60;;;17.50;83.10;;;;;;4959169;29;20454;-77
2023/07/02 01:29:46;;;;;;;5.97;3.60;;;17.50;82.80;;;;;;4958417;28;20510;-76
2023/07/02 01:32:13;;;;;;;7.60;3.80;;;17.40;83.70;;;;;;4935768;29;20546;-77
2023/07/02 01:34:38;;;;;;;4.73;3.47;;;17.40;84.00;;;;;;4965054;29;20509;-78
2023/07/02 01:37:05;;;;;;;5.33;3.57;;;17.30;84.30;;;;;;4961235;29;20972;-77
2023/07/02 01:39:31;;;;;;;5.47;3.60;;;17.20;84.40;;;;;;4956024;29;20216;-79
2023/07/02 01:42:12;;;;;;;7.37;4.00;;;17.20;84.90;;;;;;4949929;29;20435;-77
2023/07/02 01:44:38;;;;;;;3.73;3.20;;;17.20;84.70;;;;;;4948354;29;20435;-79
2023/07/02 01:47:04;;;;;;;5.23;4.00;;;17.20;84.30;;;;;;4950603;29;20475;-79
2023/07/02 01:49:30;;;;;;;7.13;4.10;;;17.20;84.30;;;;;;4949854;29;20464;-78
2023/07/02 01:51:57;;;;;;;5.77;3.90;;;17.20;84.10;;;;;;4948624;29;20458;-80
2023/07/02 01:54:26;;;;;;;7.80;4.27;;;17.20;84.60;;;;;;4947644;29;20443;-76
2023/07/02 01:56:52;;;;;;;4.50;3.00;;;17.20;84.60;;;;;;4953922;29;20815;-78
2023/07/02 01:59:18;;;;;;;7.57;3.90;;;17.20;84.60;;;;;;4948897;28;20495;-78
2023/07/02 02:01:44;;;;;;;6.90;3.83;;;17.30;84.70;;;;;;4950104;29;20199;-78
2023/07/02 02:04:10;;;;;;;6.00;3.50;;;17.30;84.60;;;;;;4953495;29;20200;-78
2023/07/02 02:06:37;;;;;;;5.73;3.57;;;17.30;84.10;;;;;;4957740;29;20224;-76
2023/07/02 02:09:04;;;;;;;5.80;3.63;;;17.30;83.80;;;;;;4958485;29;20438;-76
2023/07/02 02:11:30;;;;;;;5.70;3.60;;;17.30;83.80;;;;;;4949067;28;20468;-78
2023/07/02 02:13:56;;;;;;;4.57;3.20;;;17.40;83.70;;;;;;4957528;29;20419;-81
2023/07/02 02:16:22;;;;;;;4.50;3.43;;;17.40;83.10;;;;;;4959517;29;20952;-80
2023/07/02 02:18:51;;;;;;;9.47;3.60;;;17.40;82.70;;;;;;4952566;29;20439;-79
2023/07/02 02:21:17;;;;;;;7.00;3.43;;;17.40;82.80;;;;;;4955516;29;20266;-79
2023/07/02 02:23:43;;;;;;;6.00;3.70;;;17.40;82.80;;;;;;4958834;29;20431;-79
2023/07/02 02:26:08;;;;;;;5.57;3.37;;;17.40;83.10;;;;;;4956636;29;20555;-81
2023/07/02 02:28:34;;;;;;;6.43;4.30;;;17.50;83.00;;;;;;4959876;29;20205;-79
2023/07/02 02:31:00;;;;;;;6.53;4.47;;;17.50;83.00;;;;;;4952847;29;20229;-79
2023/07/02 02:33:26;;;;;;;7.27;3.90;;;17.50;83.10;;;;;;4954421;29;20188;-80
2023/07/02 02:35:51;;;;;;;5.70;3.53;;;17.50;83.40;;;;;;4960663;29;20821;-78
2023/07/02 02:38:17;;;;;;;8.37;3.77;;;17.60;83.60;;;;;;4966321;29;20190;-79
2023/07/02 02:40:43;;;;;;;5.93;3.83;;;17.60;83.40;;;;;;4968505;29;20230;-78
2023/07/02 02:43:09;;;;;;;8.37;3.57;;;17.60;83.30;;;;;;4965185;29;20194;-79
2023/07/02 02:45:34;;;;;;;5.50;3.20;;;17.70;83.00;;;;;;4965295;29;20235;-78
2023/07/02 02:48:00;;;;;;;4.70;3.60;;;17.70;83.10;;;;;;4958953;29;20192;-78
2023/07/02 02:50:25;;;;;;;4.70;3.70;;;17.70;83.10;;;;;;4955948;29;20299;-79
2023/07/02 02:55:19;;;;;;;6.27;4.03;;;17.70;83.40;;;;;;4949865;28;20276;-77
2023/07/02 02:57:45;;;;;;;10.70;4.53;;;17.70;83.40;;;;;;4957150;29;20961;-77
2023/07/02 03:00:11;;;;;;;8.67;3.73;;;17.60;82.80;;;;;;4941727;29;20211;-77
2023/07/02 03:02:38;;;;;;;13.40;4.17;;;17.50;83.10;;;;;;4938363;29;20502;-77
2023/07/02 03:05:05;;;;;;;6.93;4.30;;;17.40;83.60;;;;;;4939993;29;20558;-77
2023/07/02 03:07:31;;;;;;;4.33;3.43;;;17.20;83.80;;;;;;4940567;29;20954;-77
2023/07/02 03:09:57;;;;;;;9.83;4.33;;;17.20;84.00;;;;;;4932074;29;20468;-76
2023/07/02 03:12:22;;;;;;;8.67;4.47;;;17.20;83.40;;;;;;4933163;28;20879;-76
2023/07/02 03:14:52;;;;;;;6.03;3.30;;;17.20;83.70;;;;;;4936458;29;20220;-75
2023/07/02 03:17:19;;;;;;;6.53;3.63;;;17.20;83.60;;;;;;4934279;29;20877;-76
2023/07/02 03:19:44;;;;;;;6.83;3.93;;;17.30;82.80;;;;;;4930310;29;20500;-76
2023/07/02 03:22:10;;;;;;;8.93;3.90;;;17.40;82.40;;;;;;4933707;29;20943;-76
2023/07/02 03:24:35;;;;;;;7.87;4.13;;;17.40;82.10;;;;;;4936692;29;20232;-80
2023/07/02 03:27:01;;;;;;;9.80;4.10;;;17.20;82.40;;;;;;4931206;29;20193;-78
2023/07/02 03:29:27;;;;;;;7.00;5.13;;;16.80;84.10;;;;;;4934636;29;20250;-77
2023/07/02 03:31:52;;;;;;;9.30;4.67;;;16.50;86.60;;;;;;4936032;29;20199;-77
2023/07/02 03:34:18;;;;;;;7.90;4.43;;;16.30;87.30;;;;;;4933994;29;20192;-76
2023/07/02 03:36:44;;;;;;;11.87;4.50;;;16.40;87.60;;;;;;4937133;29;20205;-76
2023/07/02 03:39:10;;;;;;;10.87;5.80;;;16.50;87.80;;;;;;4936747;29;20188;-76
2023/07/02 03:41:36;;;;;;;8.40;4.80;;;16.40;88.10;;;;;;4933968;29;20452;-75
2023/07/02 03:44:01;;;;;;;8.07;4.77;;;16.40;88.40;;;;;;4934541;29;20651;-75
2023/07/02 03:46:27;;;;;;;11.50;5.23;;;16.20;88.90;;;;;;4939097;29;20706;-76
2023/07/02 03:48:52;;;;;;;7.73;4.70;;;16.20;89.30;;;;;;4937877;29;20199;-77
2023/07/02 03:51:18;;;;;;;9.03;4.50;;;16.30;89.60;;;;;;4933932;29;20205;-76
2023/07/02 03:53:44;;;;;;;8.60;4.63;;;16.20;89.00;;;;;;4936245;29;20220;-76
2023/07/02 03:56:09;;;;;;;6.87;4.77;;;16.10;89.60;;;;;;4936136;29;20285;-75
2023/07/02 03:58:35;;;;;;;6.40;4.50;;;16.00;90.10;;;;;;4937008;29;20212;-76
2023/07/02 04:01:01;;;;;;;8.33;4.47;;;15.90;90.60;;;;;;4930655;29;20209;-75
2023/07/02 04:03:26;;;;;;;8.53;5.13;;;15.90;90.90;;;;;;4936028;29;20187;-76
2023/07/02 04:05:52;;;;;;;6.20;4.40;;;15.80;90.70;;;;;;4935109;29;20581;-76
2023/07/02 04:08:20;;;;;;;10.37;5.17;;;15.70;91.00;;;;;;4936095;29;20723;-76
2023/07/02 04:10:46;;;;;;;9.40;4.80;;;15.80;91.30;;;;;;4914221;29;20216;-76
2023/07/02 04:13:12;;;;;;;9.63;4.80;;;15.80;91.30;;;;;;4936830;29;20436;-77
2023/07/02 04:15:38;;;;;;;11.27;5.77;;;15.80;90.80;;;;;;4936151;29;20224;-76
2023/07/02 04:18:03;;;;;;;13.03;5.47;;;15.80;89.70;;;;;;4936108;29;20653;-76
2023/07/02 04:20:29;;;;;;;8.43;4.67;;;15.90;89.20;;;;;;4930367;29;21028;-76
2023/07/02 04:22:55;;;;;;;11.47;5.47;;;16.00;88.40;;;;;;4934507;29;20185;-76
2023/07/02 04:25:21;;;;;;;7.57;5.00;;;16.10;88.00;;;;;;4933862;29;20525;-76
2023/07/02 04:27:46;;;;;;;12.40;4.77;;;16.00;86.30;;;;;;4935626;29;20237;-76
2023/07/02 04:30:13;;;;;;;8.43;4.50;;;16.10;86.80;;;;;;4929968;29;20884;-76
2023/07/02 04:32:39;;;;;;;7.60;4.03;;;16.20;85.90;;;;;;4915407;29;20202;-76
2023/07/02 04:35:06;;;;;;;9.67;4.90;;;16.30;86.00;;;;;;4934968;29;20439;-76
2023/07/02 04:37:32;;;;;;;12.27;4.93;;;16.30;85.50;;;;;;4937034;29;20456;-76
2023/07/02 04:39:57;;;;;;;11.93;4.87;;;16.30;85.00;;;;;;4931423;29;20469;-76
2023/07/02 04:42:27;;;;;;;12.70;4.87;;;16.20;84.90;;;;;;4936489;29;20192;-78
2023/07/02 04:44:55;;;;;;;10.13;5.13;;;16.20;85.00;;;;;;4935057;29;20235;-75
2023/07/02 04:47:21;;;;;;;7.73;4.20;;;16.20;85.60;;;;;;4936733;29;20446;-75
2023/07/02 04:49:47;;;;;;;7.87;3.93;;;16.20;85.50;;;;;;4933225;29;20566;-74
2023/07/02 04:52:12;;;;;;;8.27;4.50;;;16.10;85.30;;;;;;4931988;29;20281;-74
2023/07/02 04:54:38;;;;;;;10.73;4.90;;;16.20;85.60;;;;;;4934274;29;20271;-74
2023/07/02 04:57:04;;;;;;;8.93;4.60;;;16.20;85.50;;;;;;4936476;29;20193;-74
2023/07/02 04:59:30;;;;;;;9.77;5.30;;;16.20;85.70;;;;;;4933503;29;20250;-77
2023/07/02 05:01:55;;;;;;;7.30;4.80;;;16.20;85.60;;;;;;4937194;29;20241;-75
2023/07/02 05:04:21;;;;;;;6.90;4.90;;;16.20;85.90;;;;;;4936271;29;20196;-75
2023/07/02 05:06:47;;;;;;;10.10;5.30;;;16.20;86.30;;;;;;4935631;29;20262;-76
2023/07/02 05:09:12;;;;;;;7.33;4.13;;;16.40;86.60;;;;;;4935967;29;20281;-74
2023/07/02 05:11:38;;;;;;;7.20;4.10;;;16.50;86.30;;;;;;4935661;29;20669;-80
2023/07/02 05:14:04;;;;;;;10.23;4.70;;;16.60;85.00;;;;;;4940501;29;20239;-77
2023/07/02 05:16:30;;;;;;;7.80;5.10;;;16.70;84.30;;;;;;4938590;29;20260;-78
2023/07/02 05:18:55;;;;;;;11.17;5.13;;;16.60;83.70;;;;;;4933143;29;20196;-78
2023/07/02 05:21:22;;;;;;;13.47;4.40;;;16.60;83.80;;;;;;4937410;29;20462;-77
2023/07/02 05:23:48;;;;;;;9.70;4.43;;;16.60;83.80;;;;;;4939489;29;20195;-77
2023/07/02 05:26:14;;;;;;;9.27;4.53;;;16.60;83.40;;;;;;4939514;29;20494;-77
2023/07/02 05:28:39;;;;;;;5.77;4.10;;;16.60;82.80;;;;;;4940449;29;20444;-78
2023/07/02 05:31:05;;;;;;;8.70;4.23;;;16.60;83.30;;;;;;4933715;29;20217;-77
2023/07/02 05:33:33;;;;;;;10.27;4.43;;;16.70;83.60;;;;;;4929732;29;20233;-78
2023/07/02 05:35:59;;;;;;;10.30;4.83;;;16.70;81.40;;;;;;4937391;29;20259;-77
2023/07/02 05:38:25;;;;;;;8.70;4.63;;;16.80;82.40;;;;;;4937469;29;20436;-78
2023/07/02 05:40:50;;;;;;;11.40;4.17;;;16.80;82.40;;;;;;4934261;29;20734;-78
2023/07/02 05:43:16;;;;;;;7.70;4.23;;;16.90;82.10;;;;;;4924709;29;20199;-79
2023/07/02 05:45:42;;;;;;;8.53;5.07;;;16.90;81.90;;;;;;4941729;29;20231;-79
2023/07/02 05:48:07;;;;;;;9.73;4.47;;;16.90;81.10;;;;;;4939768;29;20188;-77
2023/07/02 05:50:33;;;;;;;9.77;4.50;;;16.80;80.20;;;;;;4926565;29;20278;-78
2023/07/02 05:52:59;;;;;;;9.23;5.17;;;16.80;80.50;;;;;;4934571;29;20247;-80
2023/07/02 05:55:25;;;;;;;10.67;5.10;;;16.80;80.90;;;;;;4938918;29;20205;-78
2023/07/02 05:57:50;;;;;;;8.80;4.30;;;16.90;80.80;;;;;;4938276;29;20195;-79
2023/07/02 06:00:16;;;;;;;10.80;5.50;;;17.00;80.90;;;;;;4932788;29;20282;-77
2023/07/02 06:02:42;;;;;;;12.03;5.37;;;17.00;80.60;;;;;;4936276;29;20199;-76
2023/07/02 06:05:08;;;;;;;8.83;4.60;;;17.10;80.00;;;;;;4937022;29;20487;-80
2023/07/02 06:07:33;;;;;;;16.93;6.20;;;17.10;79.30;;;;;;4940494;29;20196;-79
2023/07/02 06:09:59;;;;;;;13.63;5.73;;;17.10;79.50;;;;;;4935165;29;20487;-78
2023/07/02 06:12:25;;;;;;;14.50;5.70;;;17.20;79.50;;;;;;4938296;29;20657;-78
2023/07/02 06:14:50;;;;;;;13.00;6.17;;;17.20;79.60;;;;;;4933692;29;20198;-79
2023/07/02 06:17:16;;;;;;;11.50;5.43;;;17.20;79.90;;;;;;4937328;29;20192;-78
2023/07/02 06:19:44;;;;;;;12.10;7.10;;;17.40;78.70;;;;;;4933935;29;20213;-79
2023/07/02 06:22:10;;;;;;;14.80;6.67;;;17.40;76.70;;;;;;4938381;29;20188;-80
2023/07/02 06:24:35;;;;;;;20.93;7.07;;;17.40;76.70;;;;;;4938227;29;20557;-78
2023/07/02 06:27:02;;;;;;;17.70;7.97;;;17.50;76.10;;;;;;4941552;29;20195;-79
2023/07/02 06:29:28;;;;;;;23.10;8.93;;;17.60;74.80;;;;;;4938969;29;20212;-79
2023/07/02 06:31:54;;;;;;;20.70;7.83;;;17.60;74.50;;;;;;4942968;29;20456;-80
2023/07/02 06:34:20;;;;;;;17.73;9.30;;;17.80;74.00;;;;;;4944784;29;20520;-79
2023/07/02 06:36:45;;;;;;;20.90;10.03;;;17.80;73.30;;;;;;4943764;29;20195;-81
2023/07/02 06:39:11;;;;;;;18.03;8.50;;;17.80;73.00;;;;;;4943233;29;20199;-80
2023/07/02 06:41:37;;;;;;;22.73;8.77;;;17.90;72.60;;;;;;4939488;29;20199;-77
2023/07/02 06:44:02;;;;;;;18.23;8.50;;;18.10;72.30;;;;;;4945469;29;20221;-79
2023/07/02 06:46:29;;;;;;;20.10;9.40;;;18.10;71.60;;;;;;4943691;29;20220;-79
2023/07/02 06:48:55;;;;;;;20.73;9.17;;;18.30;71.10;;;;;;4944086;29;20260;-80
2023/07/02 06:51:21;;;;;;;20.93;8.27;;;18.30;71.10;;;;;;4941405;29;20571;-79
2023/07/02 06:53:47;;;;;;;17.50;8.60;;;18.30;71.30;;;;;;4945639;29;20842;-79
2023/07/02 06:56:12;;;;;;;18.70;8.70;;;18.50;70.10;;;;;;4947566;29;20201;-79
2023/07/02 06:58:43;;;;;;;21.20;10.20;;;18.50;69.80;;;;;;4948101;29;20188;-79
2023/07/02 07:01:09;;;;;;;19.00;10.07;;;18.30;70.20;;;;;;4928567;29;20682;-79
2023/07/02 07:03:40;;;;;;;21.10;9.00;;;18.40;70.20;;;;;;4951126;29;20459;-81
2023/07/02 07:06:06;;;;;;;14.40;8.23;;;18.30;70.80;;;;;;4939777;29;20251;-79
2023/07/02 07:08:31;;;;;;;16.00;8.87;;;18.50;70.50;;;;;;4938475;29;20429;-79
2023/07/02 07:10:57;;;;;;;23.00;9.30;;;18.70;70.40;;;;;;4940247;29;20251;-79
2023/07/02 07:13:22;;;;;;;20.63;9.20;;;18.70;70.70;;;;;;4945374;29;20193;-80
2023/07/02 07:15:48;;;;;;;18.80;9.50;;;18.50;70.50;;;;;;4942224;29;20196;-80
2023/07/02 07:18:14;;;;;;;19.27;9.80;;;18.70;69.90;;;;;;4942462;29;20751;-79
2023/07/02 07:20:41;;;;;;;20.90;9.70;;;18.80;69.90;;;;;;4942081;29;20758;-79
2023/07/02 07:23:07;;;;;;;19.73;10.17;;;18.50;70.40;;;;;;4943194;29;20196;-79
2023/07/02 07:25:32;;;;;;;20.57;10.57;;;18.70;69.10;;;;;;4939744;29;20587;-78
2023/07/02 07:28:00;;;;;;;32.73;12.43;;;18.80;68.90;;;;;;4941530;29;20189;-79
2023/07/02 07:30:25;;;;;;;26.70;12.10;;;18.60;67.90;;;;;;4940589;29;20208;-79
2023/07/02 07:32:52;;;;;;;22.20;11.83;;;18.60;68.60;;;;;;4942085;29;20479;-78
2023/07/02 07:35:20;;;;;;;24.07;11.20;;;18.60;67.70;;;;;;4941240;29;20201;-78
2023/07/02 07:37:45;;;;;;;21.00;11.50;;;18.50;67.30;;;;;;4941221;29;21023;-79
2023/07/02 07:40:12;;;;;;;29.07;11.60;;;18.80;67.50;;;;;;4942982;29;20517;-80
2023/07/02 07:42:37;;;;;;;25.17;11.83;;;18.90;66.70;;;;;;4943849;29;20223;-81
2023/07/02 07:45:04;;;;;;;23.47;11.60;;;19.00;65.30;;;;;;4945981;29;20477;-78
2023/07/02 07:47:30;;;;;;;28.97;13.20;;;19.00;65.80;;;;;;4943013;29;20202;-78
2023/07/02 07:49:55;;;;;;;25.20;13.13;;;19.10;65.30;;;;;;4942945;29;21017;-81
2023/07/02 07:52:21;;;;;;;26.23;13.33;;;19.00;65.30;;;;;;4949952;29;20551;-80
2023/07/02 07:54:47;;;;;;;26.93;12.93;;;19.00;65.70;;;;;;4946640;29;20208;-80
2023/07/02 07:57:14;;;;;;;29.70;13.20;;;19.10;65.60;;;;;;4941253;29;20671;-81
2023/07/02 07:59:40;;;;;;;28.00;13.80;;;19.20;65.60;;;;;;4937918;29;20496;-79
2023/07/02 08:02:06;;;;;;;29.30;13.43;;;19.10;65.40;;;;;;4938792;29;20441;-79
2023/07/02 08:04:31;;;;;;;33.77;12.87;;;19.00;66.10;;;;;;4939671;29;20196;-79
2023/07/02 08:06:57;;;;;;;25.37;11.60;;;19.40;65.80;;;;;;4935148;29;20928;-78
2023/07/02 08:09:24;;;;;;;26.63;12.60;;;19.50;65.30;;;;;;4937683;29;20291;-79
2023/07/02 08:11:50;;;;;;;21.37;11.33;;;19.50;66.00;;;;;;4943408;29;20197;-80
2023/07/02 08:14:19;;;;;;;25.00;11.97;;;19.60;66.10;;;;;;4946549;29;20835;-81
2023/07/02 08:16:45;;;;;;;28.20;13.70;;;19.50;65.80;;;;;;4945317;29;20979;-80
2023/07/02 08:19:11;;;;;;;36.23;11.77;;;19.60;66.00;;;;;;4945969;29;20440;-81
2023/07/02 08:21:37;;;;;;;25.07;12.63;;;19.60;66.30;;;;;;4942420;29;20224;-81
2023/07/02 08:24:03;;;;;;;32.93;13.43;;;19.80;65.40;;;;;;4945534;29;20444;-81
2023/07/02 08:26:29;;;;;;;25.93;12.63;;;19.60;65.60;;;;;;4948924;29;20250;-80
2023/07/02 08:28:55;;;;;;;30.40;13.00;;;19.50;65.70;;;;;;4944462;29;20446;-79
2023/07/02 08:31:20;;;;;;;32.50;14.63;;;19.50;66.00;;;;;;4940820;29;20670;-79
2023/07/02 08:33:47;;;;;;;31.43;12.23;;;19.50;66.10;;;;;;4940688;29;20203;-80
2023/07/02 08:36:15;;;;;;;25.50;11.60;;;19.40;66.40;;;;;;4943887;29;20211;-79
2023/07/02 08:38:43;;;;;;;29.27;13.53;;;19.50;66.30;;;;;;4946912;29;20456;-80
2023/07/02 08:41:08;;;;;;;24.97;12.07;;;19.50;66.30;;;;;;4945874;29;20448;-80
2023/07/02 08:43:35;;;;;;;27.83;12.17;;;19.40;66.30;;;;;;4950920;29;20523;-79
2023/07/02 08:46:02;;;;;;;31.53;12.20;;;19.40;66.10;;;;;;4945486;29;20244;-79
2023/07/02 08:48:29;;;;;;;26.70;12.47;;;19.60;65.40;;;;;;4946877;29;20437;-80
2023/07/02 08:50:55;;;;;;;23.80;11.83;;;19.70;65.60;;;;;;4941397;29;20480;-80
2023/07/02 08:53:29;;;;;;;24.90;12.43;;;19.90;65.00;;;;;;4944326;29;20524;-81
2023/07/02 08:55:57;;;;;;;22.57;12.87;;;19.90;63.70;;;;;;4925972;29;20523;-80
2023/07/02 08:58:23;;;;;;;23.53;11.50;;;19.90;64.20;;;;;;4937202;29;20483;-81
2023/07/02 09:01:24;;;;;;;24.77;11.60;;;20.00;63.70;;;;;;4938977;29;20469;-81
2023/07/02 09:03:50;;;;;;;23.93;11.93;;;20.00;63.90;;;;;;4890638;29;20197;-79
2023/07/02 09:06:18;;;;;;;24.40;10.67;;;20.00;62.60;;;;;;4871603;29;20503;-82
2023/07/02 09:08:44;;;;;;;21.60;10.23;;;20.20;62.80;;;;;;4865576;29;20346;-81
2023/07/02 09:11:14;;;;;;;19.53;10.07;;;20.30;61.70;;;;;;4880527;29;20565;-79
2023/07/02 09:13:52;;;;;;;21.63;11.00;;;20.30;61.00;;;;;;4876490;29;20200;-78
2023/07/02 09:16:26;;;;;;;17.37;9.20;;;20.30;61.20;;;;;;4878230;29;21091;-79
2023/07/02 09:18:59;;;;;;;21.90;10.50;;;20.30;60.90;;;;;;4880715;29;20446;-80
2023/07/02 09:21:37;;;;;;;20.10;9.20;;;20.20;60.90;;;;;;4881978;29;20510;-80
2023/07/02 09:24:21;;;;;;;23.10;12.00;;;20.30;61.00;;;;;;4887614;29;20437;-79
2023/07/02 09:26:49;;;;;;;24.33;11.60;;;20.30;61.60;;;;;;4876410;29;20907;-78
2023/07/02 09:29:35;;;;;;;28.90;13.30;;;20.40;62.20;;;;;;4880414;29;20495;-80
2023/07/02 09:32:03;;;;;;;26.40;10.73;;;20.50;61.60;;;;;;4882417;29;20439;-82
2023/07/02 09:34:30;;;;;;;25.13;10.70;;;20.60;61.70;;;;;;4885052;29;20456;-80
2023/07/02 09:37:01;;;;;;;24.33;11.70;;;20.70;61.70;;;;;;4893364;29;20506;-79
2023/07/02 09:39:34;;;;;;;26.23;11.63;;;20.80;61.30;;;;;;4942692;29;20441;-80
2023/07/02 09:42:04;;;;;;;34.03;12.33;;;20.80;60.90;;;;;;4942685;29;20447;-80
2023/07/02 09:44:34;;;;;;;26.60;11.40;;;20.80;60.60;;;;;;4944010;29;20449;-79
2023/07/02 09:47:07;;;;;;;25.20;10.80;;;20.70;60.60;;;;;;4946552;29;20947;-80
2023/07/02 09:49:38;;;;;;;20.00;9.60;;;20.60;61.20;;;;;;4937646;29;20453;-79
2023/07/02 09:52:06;;;;;;;23.00;11.20;;;20.80;60.70;;;;;;4943641;29;20438;-78
2023/07/02 09:54:32;;;;;;;23.83;10.43;;;21.10;60.00;;;;;;4937487;29;20477;-78
2023/07/02 09:57:01;;;;;;;20.80;9.80;;;21.40;59.70;;;;;;4938855;29;20450;-79
2023/07/02 09:59:28;;;;;;;21.30;10.40;;;21.40;59.20;;;;;;4938429;29;20195;-80
2023/07/02 10:01:54;;;;;;;19.53;10.93;;;21.40;58.90;;;;;;4922145;29;20450;-79
2023/07/02 10:04:23;;;;;;;26.43;12.03;;;21.40;59.70;;;;;;4941623;29;20533;-80
2023/07/02 10:06:58;;;;;;;21.40;10.33;;;21.30;59.90;;;;;;4942587;29;20496;-78
2023/07/02 10:09:40;;;;;;;21.17;10.87;;;21.60;59.90;;;;;;4944235;29;20438;-80
2023/07/02 10:12:45;;;;;;;25.67;10.93;;;21.90;59.60;;;;;;4943523;29;20443;-79
2023/07/02 10:15:11;;;;;;;26.00;12.93;;;22.10;58.90;;;;;;4870557;29;20443;-80
2023/07/02 10:17:37;;;;;;;23.57;10.63;;;22.20;58.70;;;;;;4872953;29;20454;-79
2023/07/02 10:20:07;;;;;;;18.43;10.43;;;22.20;57.30;;;;;;4870790;29;20262;-79
2023/07/02 10:22:43;;;;;;;35.27;12.83;;;22.30;57.80;;;;;;4871007;29;20454;-79
2023/07/02 10:25:09;;;;;;;24.20;11.70;;;22.70;56.50;;;;;;4875836;29;20839;-80
2023/07/02 10:27:36;;;;;;;24.40;12.37;;;22.70;55.40;;;;;;4874042;29;20446;-79
2023/07/02 10:30:03;;;;;;;25.23;10.90;;;22.80;56.10;;;;;;4871590;29;20236;-80
2023/07/02 10:32:29;;;;;;;24.00;11.97;;;22.80;54.60;;;;;;4872189;29;21020;-78
2023/07/02 10:34:55;;;;;;;21.77;11.00;;;22.60;55.20;;;;;;4867913;29;20481;-81
2023/07/02 10:37:21;;;;;;;23.80;12.40;;;22.40;56.80;;;;;;4867520;29;20226;-79
2023/07/02 10:39:47;;;;;;;22.73;13.10;;;22.60;56.60;;;;;;4864049;29;20482;-80
2023/07/02 10:42:13;;;;;;;26.13;12.60;;;22.20;57.00;;;;;;4868909;29;20549;-79
2023/07/02 10:44:51;;;;;;;28.83;12.40;;;22.60;56.60;;;;;;4867460;29;20669;-79
2023/07/02 10:47:17;;;;;;;24.33;12.73;;;23.10;54.90;;;;;;4871764;29;20203;-78
2023/07/02 10:49:42;;;;;;;28.40;12.80;;;23.10;55.00;;;;;;4863076;29;20471;-80
2023/07/02 10:52:08;;;;;;;21.17;11.63;;;22.90;55.80;;;;;;4929797;29;20540;-78
2023/07/02 10:54:46;;;;;;;23.50;12.77;;;22.60;57.00;;;;;;4939716;29;20230;-79
2023/07/02 10:57:21;;;;;;;23.47;12.93;;;22.70;57.60;;;;;;4941602;29;20251;-78
2023/07/02 10:59:48;;;;;;;25.57;12.77;;;22.50;57.00;;;;;;4936123;29;21300;-78
2023/07/02 11:02:14;;;;;;;22.37;11.20;;;22.10;58.10;;;;;;4940192;29;20438;-79
2023/07/02 11:04:40;;;;;;;26.07;12.23;;;22.20;57.20;;;;;;4932633;29;20470;-79
2023/07/02 11:07:06;;;;;;;23.30;11.80;;;22.30;55.20;;;;;;4942363;29;20442;-78
2023/07/02 11:09:33;;;;;;;23.13;12.43;;;22.20;55.30;;;;;;4935580;29;20457;-78
2023/07/02 11:12:00;;;;;;;22.33;12.30;;;22.20;55.80;;;;;;4941385;29;20315;-79
2023/07/02 11:14:36;;;;;;;24.00;12.13;;;22.10;56.00;;;;;;4939089;29;20490;-80
2023/07/02 11:17:06;;;;;;;25.97;13.87;;;22.40;55.70;;;;;;4943492;29;20531;-79
2023/07/02 11:19:36;;;;;;;28.03;12.40;;;22.60;55.30;;;;;;4935934;29;20470;-78
2023/07/02 11:22:02;;;;;;;34.73;12.97;;;22.70;54.20;;;;;;4938336;29;20443;-79
2023/07/02 11:24:33;;;;;;;29.00;13.70;;;22.80;54.00;;;;;;4934795;29;20501;-80
2023/07/02 11:27:08;;;;;;;26.57;12.27;;;23.00;54.00;;;;;;4938191;29;20502;-83
2023/07/02 11:29:35;;;;;;;27.77;13.10;;;22.50;54.60;;;;;;4938851;29;20465;-80
2023/07/02 11:32:10;;;;;;;26.60;11.90;;;22.60;54.90;;;;;;4941663;29;20431;-79
2023/07/02 11:34:37;;;;;;;22.97;11.30;;;22.60;54.90;;;;;;4939996;29;20449;-79
2023/07/02 11:37:04;;;;;;;22.60;11.30;;;23.20;52.50;;;;;;4940786;29;20522;-79
2023/07/02 11:39:29;;;;;;;21.93;12.40;;;23.70;51.60;;;;;;4938155;29;20458;-80
2023/07/02 11:41:55;;;;;;;26.03;11.87;;;23.90;50.30;;;;;;4944081;29;20542;-79
2023/07/02 11:44:21;;;;;;;25.87;12.40;;;24.00;49.40;;;;;;4948835;29;20199;-78
2023/07/02 11:46:47;;;;;;;22.63;12.40;;;24.00;47.80;;;;;;4946258;29;20301;-82
2023/07/02 11:49:13;;;;;;;26.07;12.47;;;23.90;47.90;;;;;;4942993;29;20229;-80
2023/07/02 11:51:40;;;;;;;27.53;12.13;;;24.10;48.50;;;;;;4935824;29;20459;-80
2023/07/02 11:54:07;;;;;;;26.07;11.80;;;24.20;49.40;;;;;;4945640;29;20602;-81
2023/07/02 11:56:33;;;;;;;21.37;11.60;;;24.20;49.50;;;;;;4949360;29;20476;-79
2023/07/02 11:58:59;;;;;;;22.57;12.10;;;24.70;48.50;;;;;;4946458;29;20490;-78
2023/07/02 12:01:24;;;;;;;25.93;12.77;;;24.40;49.30;;;;;;4938977;29;20503;-79
2023/07/02 12:03:50;;;;;;;24.23;12.77;;;24.30;48.60;;;;;;4943341;29;20479;-80
2023/07/02 12:06:16;;;;;;;25.23;13.17;;;24.10;48.10;;;;;;4947198;29;20219;-81
2023/07/02 12:08:41;;;;;;;26.30;13.60;;;23.90;48.60;;;;;;4946944;29;20787;-81
2023/07/02 12:11:08;;;;;;;18.93;12.03;;;24.30;47.70;;;;;;4944271;29;20231;-80
2023/07/02 12:13:33;;;;;;;24.30;11.77;;;24.70;46.70;;;;;;4945612;29;20214;-79
2023/07/02 12:15:59;;;;;;;21.47;11.67;;;25.00;44.90;;;;;;4928936;29;21114;-81
2023/07/02 12:18:25;;;;;;;28.40;13.30;;;24.60;45.80;;;;;;4949126;29;20262;-80
2023/07/02 12:20:50;;;;;;;25.67;12.70;;;24.10;46.90;;;;;;4947237;29;20214;-78
2023/07/02 12:23:16;;;;;;;25.40;13.50;;;23.90;47.70;;;;;;4946498;29;20188;-79
2023/07/02 12:25:42;;;;;;;20.20;11.37;;;24.30;47.50;;;;;;4942758;29;20285;-79
2023/07/02 12:28:07;;;;;;;21.33;11.63;;;24.70;45.70;;;;;;4946609;29;20192;-79
2023/07/02 12:30:33;;;;;;;25.93;13.97;;;24.70;45.40;;;;;;4944509;29;20227;-80
2023/07/02 12:32:59;;;;;;;24.03;12.90;;;24.90;45.70;;;;;;4943724;29;20264;-80
2023/07/02 12:35:24;;;;;;;23.27;13.13;;;25.40;44.70;;;;;;4951487;29;20607;-79
2023/07/02 12:37:52;;;;;;;24.93;13.33;;;25.80;43.70;;;;;;4950018;29;20190;-81